Terminal Aerodrome Forecast
Issued by NWS

Home | Current Version | Previous Version | Text Only | Print | Product List | Glossary On
Versions: 1 2 3 4 5 6 7 8 9 10 11 12
576
FTUS43 KILX 251129
TAFDEC
TAF
KDEC 251129Z 2512/2612 19007KT P6SM BKN250
     FM251800 18012G20KT P6SM VCTS SCT050CB BKN150
     FM260200 19010KT P6SM VCSH BKN050 BKN120=

USA.gov is the U.S. government's official web portal to all federal, state and local government web resources and services.